Time;durP1;ratioP1;P1;durP2;ratioP2;P2;SDS_P1;SDS_P2;PMS_P1;PMS_P2;Temp;Humidity;BMP_temperature;BMP_pressure;BME280_temperature;BME280_humidity;BME280_pressure;Samples;Min_cycle;Max_cycle;Signal;HPM_P1;HPM_P2
2022/08/20 00:00:35;;;;;;;0.20;0.20;;;;;;;18.85;86.09;100061.66;5107378;28;20028;-62
2022/08/20 00:03:07;;;;;;;0.40;0.40;;;;;;;18.83;85.87;100073.06;5125897;28;20416;-62
2022/08/20 00:05:39;;;;;;;0.20;0.20;;;;;;;18.81;85.73;100072.31;5125782;28;20016;-62
2022/08/20 00:08:06;;;;;;;0.30;0.30;;;;;;;18.79;85.94;100073.28;5125661;28;20051;-62
2022/08/20 00:10:35;;;;;;;0.20;0.20;;;;;;;18.78;86.09;100071.59;5126044;28;20529;-63
2022/08/20 00:13:00;;;;;;;0.20;0.20;;;;;;;18.76;86.21;100078.69;5125779;28;20031;-62
2022/08/20 00:15:32;;;;;;;0.63;0.63;;;;;;;18.73;85.64;100071.81;5125399;28;20027;-62
2022/08/20 00:17:59;;;;;;;0.30;0.30;;;;;;;18.76;85.84;100073.44;5107809;28;20022;-62
2022/08/20 00:20:28;;;;;;;0.50;0.50;;;;;;;18.75;85.81;100070.00;5125853;28;20034;-62
2022/08/20 00:22:55;;;;;;;0.20;0.20;;;;;;;18.73;86.12;100063.06;5125725;28;20027;-63
2022/08/20 00:25:21;;;;;;;0.20;0.20;;;;;;;18.67;86.14;100058.97;5125683;28;20524;-62
2022/08/20 00:27:46;;;;;;;0.20;0.20;;;;;;;18.64;86.14;100054.69;5125576;28;20632;-62
2022/08/20 00:30:14;;;;;;;0.20;0.20;;;;;;;18.60;86.17;100062.81;5125753;28;20039;-62
2022/08/20 00:32:47;;;;;;;0.38;0.38;;;;;;;18.60;86.11;100062.81;5125624;28;20102;-62
2022/08/20 00:35:18;;;;;;;0.20;0.20;;;;;;;18.60;85.94;100070.69;5106989;28;20023;-62
2022/08/20 00:37:43;;;;;;;0.20;0.20;;;;;;;18.56;86.28;100076.09;5125636;28;20023;-62
2022/08/20 00:40:13;;;;;;;0.20;0.20;;;;;;;18.56;86.44;100083.16;5125586;28;20072;-62
2022/08/20 00:42:49;;;;;;;0.25;0.25;;;;;;;18.63;86.00;100081.94;5125334;28;20057;-62
2022/08/20 00:45:15;;;;;;;0.20;0.20;;;;;;;18.67;86.07;100095.78;5125791;28;20019;-62
2022/08/20 00:47:44;;;;;;;0.20;0.20;;;;;;;18.69;85.95;100093.94;5125326;28;20039;-62
2022/08/20 00:50:12;;;;;;;0.20;0.20;;;;;;;18.73;85.87;100102.53;5125386;28;20434;-62
2022/08/20 00:52:41;;;;;;;0.20;0.20;;;;;;;18.73;85.76;100105.16;5125637;28;20023;-62
2022/08/20 00:55:07;;;;;;;0.30;0.30;;;;;;;18.72;85.69;100103.44;5126998;28;20487;-62
2022/08/20 00:57:38;;;;;;;0.20;0.20;;;;;;;18.77;85.84;100112.81;5129229;28;20095;-62
2022/08/20 01:00:15;;;;;;;0.30;0.30;;;;;;;18.78;85.52;100109.28;5129314;28;20031;-62
2022/08/20 01:02:41;;;;;;;0.32;0.32;;;;;;;18.79;85.74;100105.72;5129224;28;20074;-62
2022/08/20 01:05:08;;;;;;;0.20;0.20;;;;;;;18.86;85.28;100103.66;5128953;28;20012;-62
2022/08/20 01:07:34;;;;;;;0.20;0.20;;;;;;;18.91;85.35;100101.63;5129119;28;20029;-62
2022/08/20 01:10:21;;;;;;;0.40;0.40;;;;;;;18.93;85.04;100097.16;5129070;28;20027;-62
2022/08/20 01:12:48;;;;;;;0.30;0.30;;;;;;;18.89;84.87;100094.75;5110436;28;20096;-62
2022/08/20 01:15:17;;;;;;;0.45;0.45;;;;;;;18.83;85.01;100099.38;5128818;28;20058;-62
2022/08/20 01:17:48;;;;;;;0.20;0.20;;;;;;;18.85;85.05;100098.47;5110401;28;20023;-62
2022/08/20 01:20:21;;;;;;;0.20;0.20;;;;;;;18.85;85.06;100098.47;5128761;28;20024;-62
2022/08/20 01:23:30;;;;;;;0.20;0.20;;;;;;;18.88;84.85;100093.06;5128337;28;20027;-62
2022/08/20 01:26:10;;;;;;;0.20;0.20;;;;;;;18.85;84.72;100093.19;5099263;28;20035;-62
2022/08/20 01:28:40;;;;;;;0.20;0.20;;;;;;;18.82;84.83;100095.03;5128785;28;20028;-62
2022/08/20 01:31:09;;;;;;;0.20;0.20;;;;;;;18.80;84.88;100096.06;5128358;28;20088;-62
2022/08/20 01:33:34;;;;;;;0.20;0.20;;;;;;;18.79;84.55;100099.59;5128256;28;20031;-62
2022/08/20 01:36:00;;;;;;;0.20;0.20;;;;;;;18.78;84.60;100097.91;5127970;28;20028;-63
2022/08/20 01:38:27;;;;;;;0.20;0.20;;;;;;;18.76;84.68;100094.47;5128445;28;20015;-62
2022/08/20 01:41:13;;;;;;;0.20;0.20;;;;;;;18.79;84.95;100084.69;5128023;28;20023;-62
2022/08/20 01:43:40;;;;;;;0.20;0.20;;;;;;;18.77;84.75;100089.16;5128078;28;20019;-63
2022/08/20 01:46:08;;;;;;;0.20;0.20;;;;;;;18.77;84.85;100085.69;5128336;28;20031;-63
2022/08/20 01:48:36;;;;;;;0.20;0.20;;;;;;;18.76;84.43;100082.19;5128238;28;20073;-62
2022/08/20 01:51:09;;;;;;;0.30;0.30;;;;;;;18.74;84.49;100078.78;5128111;28;20042;-62
2022/08/20 01:53:40;;;;;;;0.20;0.20;;;;;;;18.68;84.70;100072.06;5128195;28;20020;-62
2022/08/20 01:56:08;;;;;;;0.20;0.20;;;;;;;18.68;84.57;100071.19;5109640;28;20019;-62
2022/08/20 01:58:38;;;;;;;0.20;0.20;;;;;;;18.62;84.58;100077.59;5127843;28;20258;-62
2022/08/20 02:01:04;;;;;;;0.20;0.20;;;;;;;18.57;84.45;100067.31;5127653;28;20034;-62
2022/08/20 02:03:29;;;;;;;2.17;0.82;;;;;;;18.56;84.20;100057.69;5128035;28;20043;-62
2022/08/20 02:05:57;;;;;;;0.20;0.20;;;;;;;18.48;84.22;100053.75;5127132;28;20023;-63
2022/08/20 02:08:23;;;;;;;0.20;0.20;;;;;;;18.46;84.12;100051.19;5127556;28;20035;-62
2022/08/20 02:10:48;;;;;;;0.20;0.20;;;;;;;18.42;84.23;100052.25;5127986;28;20023;-62
2022/08/20 02:13:15;;;;;;;0.20;0.20;;;;;;;18.36;84.27;100058.66;5127809;28;20360;-62
2022/08/20 02:15:41;;;;;;;0.20;0.20;;;;;;;18.30;84.49;100046.66;5127210;28;20045;-62
2022/08/20 02:18:10;;;;;;;0.20;0.20;;;;;;;18.26;84.40;100044.25;5127754;28;20028;-62
2022/08/20 02:20:36;;;;;;;0.20;0.20;;;;;;;18.21;84.30;100044.47;5127153;28;20019;-63
2022/08/20 02:23:02;;;;;;;0.20;0.20;;;;;;;18.15;84.38;100044.72;5127595;28;20029;-62
2022/08/20 02:25:32;;;;;;;0.20;0.20;;;;;;;18.12;84.24;100040.47;5127421;28;20483;-62
2022/08/20 02:28:00;;;;;;;0.20;0.20;;;;;;;18.04;84.39;100039.94;5127161;28;20459;-62
2022/08/20 02:30:32;;;;;;;0.20;0.20;;;;;;;17.98;84.29;100030.56;5127148;28;20359;-62
2022/08/20 02:32:59;;;;;;;0.20;0.20;;;;;;;17.96;84.48;100024.53;5127535;28;20021;-62
2022/08/20 02:35:24;;;;;;;0.20;0.20;;;;;;;17.92;84.70;100023.81;5108931;28;20024;-62
2022/08/20 02:37:51;;;;;;;0.20;0.20;;;;;;;17.90;84.49;100022.19;5127247;28;20110;-62
2022/08/20 02:40:18;;;;;;;0.20;0.20;;;;;;;17.84;84.49;100031.22;5127315;28;20023;-62
2022/08/20 02:42:44;;;;;;;0.20;0.20;;;;;;;17.79;84.84;100026.16;5127084;28;20106;-62
2022/08/20 02:45:15;;;;;;;0.20;0.20;;;;;;;17.73;84.76;100036.94;5126786;28;20020;-62
2022/08/20 02:47:43;;;;;;;0.20;0.20;;;;;;;17.71;84.73;100038.78;5126984;28;20123;-63
2022/08/20 02:50:13;;;;;;;0.20;0.20;;;;;;;17.65;84.53;100034.63;5126203;28;20027;-62
2022/08/20 02:52:38;;;;;;;0.20;0.20;;;;;;;17.63;84.65;100040.88;5126672;28;20147;-62
2022/08/20 02:55:05;;;;;;;0.20;0.20;;;;;;;17.59;84.72;100041.00;5126608;28;20589;-62
2022/08/20 02:57:30;;;;;;;0.20;0.20;;;;;;;17.54;84.66;100040.34;5126864;28;20490;-62
2022/08/20 02:59:56;;;;;;;0.20;0.20;;;;;;;17.48;84.91;100040.63;5126938;28;20027;-62
2022/08/20 03:02:21;;;;;;;0.30;0.30;;;;;;;17.49;84.76;100036.25;5126893;28;20023;-62
2022/08/20 03:04:47;;;;;;;0.20;0.20;;;;;;;17.48;84.55;100038.00;5126554;28;20020;-62
2022/08/20 03:07:13;;;;;;;1.38;1.30;;;;;;;17.43;84.65;100030.34;5126566;28;20055;-62
2022/08/20 03:09:39;;;;;;;0.20;0.20;;;;;;;17.40;84.86;100040.09;5126806;28;20020;-62
2022/08/20 03:12:06;;;;;;;0.20;0.20;;;;;;;17.34;84.63;100031.59;5126748;28;20016;-62
2022/08/20 03:14:32;;;;;;;0.20;0.20;;;;;;;17.36;84.67;100044.66;5126245;28;20463;-62
2022/08/20 03:16:58;;;;;;;0.30;0.30;;;;;;;17.33;84.52;100045.59;5125729;28;20028;-62
2022/08/20 03:19:24;;;;;;;0.30;0.30;;;;;;;17.32;84.60;100049.16;5126405;28;20462;-62
2022/08/20 03:21:49;;;;;;;0.20;0.20;;;;;;;17.32;84.59;100049.16;5126566;28;20107;-62
2022/08/20 03:24:14;;;;;;;0.30;0.30;;;;;;;17.32;84.90;100054.41;5126448;28;20542;-62
2022/08/20 03:26:40;;;;;;;0.20;0.20;;;;;;;17.30;85.06;100060.66;5126107;28;20043;-62
2022/08/20 03:29:06;;;;;;;0.20;0.20;;;;;;;17.28;84.94;100065.97;5126476;28;20020;-62
2022/08/20 03:31:31;;;;;;;0.20;0.20;;;;;;;17.31;84.90;100064.97;5126353;28;20027;-63
2022/08/20 03:33:57;;;;;;;0.20;0.20;;;;;;;17.28;85.01;100071.22;5126262;28;20110;-62
2022/08/20 03:36:25;;;;;;;0.20;0.20;;;;;;;17.28;85.28;100071.22;5126132;28;20047;-62
2022/08/20 03:38:50;;;;;;;0.30;0.30;;;;;;;17.32;85.26;100078.03;5126341;28;20024;-62
2022/08/20 03:41:16;;;;;;;0.20;0.20;;;;;;;17.30;84.95;100082.47;5126138;28;20077;-63
2022/08/20 03:43:41;;;;;;;0.20;0.20;;;;;;;17.30;85.21;100089.50;5126318;28;20031;-61
2022/08/20 03:46:07;;;;;;;0.20;0.20;;;;;;;17.28;85.27;100100.06;5126476;28;20051;-61
2022/08/20 03:48:33;;;;;;;0.20;0.20;;;;;;;17.29;85.06;100095.66;5126137;28;20111;-61
2022/08/20 03:50:59;;;;;;;0.20;0.20;;;;;;;17.28;85.10;100104.44;5125923;28;20386;-62
2022/08/20 03:53:30;;;;;;;0.20;0.20;;;;;;;17.28;85.52;100110.56;5125981;28;20024;-61
2022/08/20 03:55:59;;;;;;;0.40;0.40;;;;;;;17.30;85.05;100105.25;5125721;28;20049;-61
2022/08/20 03:58:26;;;;;;;0.20;0.20;;;;;;;17.27;84.75;100103.59;5125952;28;20114;-62
2022/08/20 04:00:52;;;;;;;0.22;0.22;;;;;;;17.29;84.64;100096.50;5125946;28;20015;-62
2022/08/20 04:03:18;;;;;;;0.63;0.63;;;;;;;17.27;84.62;100103.59;5125461;28;20050;-61
2022/08/20 04:05:44;;;;;;;0.20;0.20;;;;;;;17.30;84.63;100107.88;5125870;28;20020;-62
2022/08/20 04:08:14;;;;;;;0.30;0.30;;;;;;;17.28;84.80;100109.69;5125858;28;20026;-62
2022/08/20 04:10:40;;;;;;;0.20;0.20;;;;;;;17.26;85.10;100116.78;5126274;28;20024;-61
2022/08/20 04:13:07;;;;;;;0.20;0.20;;;;;;;17.31;84.87;100120.06;5125898;28;20031;-62
2022/08/20 04:15:34;;;;;;;0.30;0.30;;;;;;;17.32;84.59;100122.63;5125656;28;20156;-62
2022/08/20 04:18:00;;;;;;;0.22;0.22;;;;;;;17.39;84.54;100117.13;5125792;28;20027;-62
2022/08/20 04:20:26;;;;;;;0.20;0.20;;;;;;;17.39;84.70;100127.63;5125779;28;20016;-62
2022/08/20 04:22:54;;;;;;;0.40;0.40;;;;;;;17.45;84.58;100127.34;5125718;28;20023;-61
2022/08/20 04:25:20;;;;;;;0.20;0.20;;;;;;;17.44;84.65;100126.50;5107274;28;20104;-61
2022/08/20 04:27:46;;;;;;;0.20;0.20;;;;;;;17.61;85.05;100129.31;5125443;28;20398;-62
2022/08/20 04:30:13;;;;;;;0.20;0.20;;;;;;;17.84;85.48;100131.81;5129514;28;20039;-62
2022/08/20 04:32:40;;;;;;;0.35;0.35;;;;;;;18.09;85.41;100143.91;5129504;28;20046;-62
2022/08/20 04:35:10;;;;;;;0.20;0.20;;;;;;;18.37;85.30;100147.06;5129437;28;20020;-62
2022/08/20 04:37:38;;;;;;;0.28;0.28;;;;;;;18.52;85.19;100136.78;5129988;28;20016;-62
2022/08/20 04:42:56;;;;;;;0.20;0.20;;;;;;;18.98;84.86;100133.75;5129865;28;20034;-62
2022/08/20 04:45:21;;;;;;;0.20;0.20;;;;;;;19.20;85.95;100133.59;5110835;28;20019;-62
2022/08/20 04:47:48;;;;;;;0.20;0.20;;;;;;;19.34;85.83;100118.06;5129148;28;20106;-62
2022/08/20 04:50:14;;;;;;;0.20;0.20;;;;;;;19.44;85.47;100129.84;5129187;28;20049;-63
2022/08/20 04:52:39;;;;;;;0.70;0.70;;;;;;;19.47;85.38;100120.91;5129140;28;20024;-63
2022/08/20 04:55:06;;;;;;;0.30;0.30;;;;;;;19.50;84.79;100121.63;5129211;28;20028;-62
2022/08/20 04:57:34;;;;;;;0.20;0.20;;;;;;;19.48;84.58;100115.56;5128963;28;20034;-62
2022/08/20 04:59:59;;;;;;;0.20;0.20;;;;;;;19.37;83.90;100124.03;5129074;28;20031;-62
2022/08/20 05:02:24;;;;;;;4.18;0.82;;;;;;;19.23;83.63;100129.13;5111106;28;20027;-62
2022/08/20 05:04:50;;;;;;;0.20;0.20;;;;;;;19.07;83.21;100141.19;5128894;28;20020;-62
2022/08/20 05:07:20;;;;;;;0.20;0.20;;;;;;;19.01;83.19;100138.03;5110575;28;20091;-62
2022/08/20 05:09:45;;;;;;;0.20;0.20;;;;;;;18.96;83.02;100133.00;5128659;28;20027;-62
2022/08/20 05:12:14;;;;;;;0.40;0.40;;;;;;;18.91;81.93;100135.81;5128917;28;20031;-62
2022/08/20 05:14:39;;;;;;;0.20;0.20;;;;;;;18.84;82.08;100129.16;5110672;28;20024;-62
2022/08/20 05:17:05;;;;;;;0.20;0.20;;;;;;;18.78;81.82;100130.31;5128825;28;20088;-61
2022/08/20 05:19:33;;;;;;;0.20;0.20;;;;;;;18.73;82.08;100126.19;5128883;28;20043;-61
2022/08/20 05:21:58;;;;;;;0.20;0.20;;;;;;;18.73;81.70;100126.19;5128598;28;20088;-61
2022/08/20 05:24:25;;;;;;;0.20;0.20;;;;;;;18.73;80.22;100126.19;5128470;28;20044;-62
2022/08/20 05:26:50;;;;;;;0.30;0.30;;;;;;;18.66;80.75;100126.47;5128438;28;20214;-62
2022/08/20 05:29:16;;;;;;;0.20;0.20;;;;;;;18.72;81.00;100129.75;5128711;28;20546;-61
2022/08/20 05:31:42;;;;;;;0.20;0.20;;;;;;;18.76;80.53;100121.63;5128683;28;20020;-61
2022/08/20 05:34:09;;;;;;;0.20;0.20;;;;;;;18.77;79.75;100133.84;5128861;28;20028;-62
2022/08/20 05:36:39;;;;;;;0.30;0.30;;;;;;;18.80;79.99;100130.25;5128135;28;20036;-61
2022/08/20 05:39:05;;;;;;;0.20;0.20;;;;;;;18.94;80.65;100129.56;5128452;28;20110;-61
2022/08/20 05:41:30;;;;;;;0.30;0.30;;;;;;;19.27;81.73;100135.91;5127168;28;20024;-62
2022/08/20 05:43:59;;;;;;;0.82;0.82;;;;;;;19.60;81.68;100135.16;5128195;28;20108;-62
2022/08/20 05:46:24;;;;;;;0.20;0.20;;;;;;;19.82;81.37;100131.44;5128156;28;20027;-62
2022/08/20 05:48:50;;;;;;;0.20;0.20;;;;;;;20.05;78.81;100132.88;5128154;28;20026;-62
2022/08/20 05:51:15;;;;;;;0.47;0.47;;;;;;;20.05;79.49;100116.22;5127826;28;20024;-63
2022/08/20 05:53:40;;;;;;;0.20;0.20;;;;;;;20.44;78.84;100137.88;5128139;28;20030;-62
2022/08/20 05:56:06;;;;;;;0.20;0.20;;;;;;;20.71;78.54;100134.66;5128066;28;20079;-62
2022/08/20 05:58:31;;;;;;;0.20;0.20;;;;;;;20.99;77.01;100138.41;5127746;28;20023;-62
2022/08/20 06:00:58;;;;;;;0.20;0.20;;;;;;;21.20;77.69;100143.41;5127877;28;20035;-62
2022/08/20 06:06:08;;;;;;;0.20;0.20;;;;;;;21.25;76.06;100140.50;5127955;28;20031;-63
2022/08/20 06:08:34;;;;;;;0.95;0.75;;;;;;;21.26;75.52;100152.78;5127671;28;20031;-62
2022/08/20 06:10:59;;;;;;;0.20;0.20;;;;;;;21.37;75.94;100158.28;5127796;28;20027;-62
2022/08/20 06:13:25;;;;;;;0.20;0.20;;;;;;;21.41;75.81;100149.25;5127932;28;20045;-62
2022/08/20 06:15:50;;;;;;;0.20;0.20;;;;;;;21.54;75.83;100159.09;5127210;28;20041;-62
2022/08/20 06:18:16;;;;;;;0.32;0.32;;;;;;;21.57;75.68;100144.84;5109370;28;20031;-62
2022/08/20 06:20:42;;;;;;;0.20;0.20;;;;;;;21.60;73.20;100158.72;5127383;28;20031;-62
2022/08/20 06:23:07;;;;;;;0.20;0.20;;;;;;;21.35;73.47;100160.16;5127283;28;20032;-63
2022/08/20 06:25:33;;;;;;;0.43;0.43;;;;;;;21.32;74.12;100162.97;5127500;28;20024;-62
2022/08/20 06:28:00;;;;;;;0.20;0.20;;;;;;;21.26;73.30;100158.88;5127226;28;20612;-62
2022/08/20 06:30:25;;;;;;;0.25;0.25;;;;;;;21.10;72.88;100150.16;5127537;28;20027;-63
2022/08/20 06:32:51;;;;;;;0.52;0.52;;;;;;;20.93;72.60;100159.88;5127320;28;20027;-63
2022/08/20 06:35:17;;;;;;;0.20;0.20;;;;;;;20.74;72.57;100146.81;5127051;28;20083;-62
2022/08/20 06:37:42;;;;;;;0.20;0.20;;;;;;;20.68;72.65;100158.59;5127351;28;20024;-63
2022/08/20 06:40:21;;;;;;;0.20;0.20;;;;;;;20.58;72.13;100160.00;5127646;28;20051;-64
2022/08/20 06:42:48;;;;;;;0.20;0.20;;;;;;;20.60;71.54;100151.09;5127502;28;20076;-63
2022/08/20 06:45:18;;;;;;;0.30;0.30;;;;;;;20.64;71.04;100154.41;5127007;28;20026;-63
2022/08/20 06:47:45;;;;;;;0.20;0.20;;;;;;;20.74;71.09;100163.50;5126999;28;20110;-63
2022/08/20 06:50:14;;;;;;;1.33;1.23;;;;;;;21.07;69.26;100160.91;5126979;28;20020;-63
2022/08/20 06:52:40;;;;;;;0.20;0.20;;;;;;;21.34;69.33;100168.16;5125980;28;20023;-62
2022/08/20 06:55:09;;;;;;;0.20;0.20;;;;;;;21.61;69.03;100172.78;5126766;28;20031;-63
2022/08/20 06:57:36;;;;;;;0.20;0.20;;;;;;;21.82;67.32;100168.03;5108610;28;20023;-63
2022/08/20 07:00:05;;;;;;;0.20;0.20;;;;;;;21.95;67.00;100168.16;5126666;28;20023;-63
2022/08/20 07:02:32;;;;;;;0.30;0.30;;;;;;;22.11;67.10;100175.16;5127225;28;20024;-63
2022/08/20 07:04:58;;;;;;;0.50;0.50;;;;;;;22.20;65.07;100171.97;5126539;28;20083;-63
2022/08/20 07:07:23;;;;;;;0.20;0.20;;;;;;;22.19;65.52;100174.69;5126850;28;20015;-63
2022/08/20 07:09:49;;;;;;;0.13;0.13;;;;;;;22.28;64.26;100177.59;5126707;28;20068;-63
2022/08/20 07:12:15;;;;;;;0.20;0.20;;;;;;;22.61;63.73;100188.88;5108420;28;20023;-63
2022/08/20 07:14:40;;;;;;;0.20;0.20;;;;;;;23.00;63.54;100177.63;5126792;28;20047;-63
2022/08/20 07:17:05;;;;;;;0.20;0.20;;;;;;;23.47;61.27;100191.38;5126533;28;20075;-63
2022/08/20 07:19:32;;;;;;;0.10;0.10;;;;;;;23.95;61.76;100189.94;5108297;28;20047;-63
2022/08/20 07:21:58;;;;;;;0.20;0.20;;;;;;;24.60;61.87;100197.06;5126405;28;20023;-63
2022/08/20 07:24:23;;;;;;;0.20;0.20;;;;;;;25.60;62.50;100196.00;5126429;28;20030;-63
2022/08/20 07:26:50;;;;;;;0.10;0.10;;;;;;;26.14;60.48;100198.19;5126390;28;20040;-62
2022/08/20 07:29:17;;;;;;;0.10;0.10;;;;;;;26.59;58.75;100201.84;5126485;28;20375;-62
2022/08/20 07:34:26;;;;;;;0.20;0.20;;;;;;;26.05;56.35;100202.41;5126860;28;20045;-62
2022/08/20 07:36:52;;;;;;;0.20;0.20;;;;;;;25.61;55.95;100207.47;5126291;28;20027;-63
2022/08/20 07:39:17;;;;;;;0.10;0.10;;;;;;;25.42;56.92;100210.66;5126504;28;20019;-63
2022/08/20 07:41:42;;;;;;;0.10;0.10;;;;;;;25.21;57.07;100206.84;5125982;28;20115;-63
2022/08/20 07:44:08;;;;;;;0.10;0.10;;;;;;;25.10;56.83;100202.31;5126419;28;20043;-63
2022/08/20 07:46:34;;;;;;;0.15;0.15;;;;;;;24.97;55.80;100206.81;5126230;28;20023;-62
2022/08/20 07:48:59;;;;;;;0.10;0.10;;;;;;;24.75;55.91;100209.22;5126231;28;20026;-63
2022/08/20 07:51:25;;;;;;;0.43;0.43;;;;;;;24.79;56.62;100212.50;5126271;28;20027;-62
2022/08/20 07:53:51;;;;;;;0.10;0.10;;;;;;;24.92;56.75;100209.00;5126276;28;20125;-64
2022/08/20 07:56:20;;;;;;;0.20;0.20;;;;;;;24.95;55.41;100206.94;5126136;28;20027;-63
2022/08/20 07:58:51;;;;;;;0.20;0.20;;;;;;;24.64;54.89;100211.78;5125958;28;20115;-64
2022/08/20 08:01:27;;;;;;;0.10;0.10;;;;;;;24.43;55.24;100222.97;5107479;28;20015;-65
2022/08/20 08:03:52;;;;;;;0.20;0.20;;;;;;;24.24;54.24;100224.25;5109042;28;20056;-64
2022/08/20 08:06:20;;;;;;;0.20;0.20;;;;;;;23.86;53.32;100233.84;5111817;28;20031;-64
2022/08/20 08:08:49;;;;;;;0.10;0.10;;;;;;;23.47;52.35;100230.25;5111759;28;20529;-63
2022/08/20 08:11:15;;;;;;;0.10;0.10;;;;;;;23.11;54.14;100229.88;5130508;28;20039;-64
2022/08/20 08:13:42;;;;;;;0.20;0.20;;;;;;;23.05;54.38;100236.44;5130366;28;20016;-63
2022/08/20 08:16:08;;;;;;;0.20;0.20;;;;;;;22.99;54.63;100236.78;5130032;28;20034;-63
2022/08/20 08:18:40;;;;;;;0.40;0.40;;;;;;;23.13;53.51;100239.41;5130277;28;20027;-63
2022/08/20 08:21:07;;;;;;;0.20;0.20;;;;;;;23.34;53.92;100238.13;5130249;28;20110;-64
2022/08/20 08:23:33;;;;;;;0.20;0.20;;;;;;;23.69;53.91;100234.13;5129967;28;20042;-63
2022/08/20 08:25:59;;;;;;;0.10;0.10;;;;;;;24.05;52.64;100250.28;5111522;28;20015;-64
2022/08/20 08:28:28;;;;;;;0.68;0.68;;;;;;;24.55;53.24;100246.94;5087964;28;20040;-63
2022/08/20 08:30:54;;;;;;;1.05;1.00;;;;;;;24.65;52.39;100242.66;5088974;28;20028;-64
2022/08/20 08:33:32;;;;;;;0.15;0.15;;;;;;;24.79;51.80;100244.34;5088663;28;20066;-62
2022/08/20 08:36:05;;;;;;;1.20;1.20;;;;;;;25.35;48.51;100250.16;5088474;28;20054;-63
2022/08/20 08:38:36;;;;;;;0.10;0.10;;;;;;;25.90;48.64;100246.13;5088752;28;20031;-64
2022/08/20 08:41:17;;;;;;;0.20;0.20;;;;;;;26.64;47.25;100241.41;5088598;28;20024;-65
2022/08/20 08:43:48;;;;;;;0.10;0.10;;;;;;;26.95;45.87;100239.78;5088948;28;20031;-64
2022/08/20 08:46:21;;;;;;;0.10;0.10;;;;;;;27.37;44.83;100243.56;5089055;28;20040;-64
2022/08/20 08:48:52;;;;;;;0.10;0.10;;;;;;;28.09;44.36;100240.31;5088498;28;20108;-65
2022/08/20 08:51:28;;;;;;;0.67;0.67;;;;;;;28.66;43.46;100245.22;5088396;28;20137;-64
2022/08/20 08:53:54;;;;;;;0.10;0.10;;;;;;;29.19;43.50;100251.28;5088719;28;20024;-64
2022/08/20 08:56:23;;;;;;;0.10;0.10;;;;;;;29.73;43.77;100242.00;5087383;28;20028;-66
2022/08/20 08:58:49;;;;;;;0.10;0.10;;;;;;;30.32;42.79;100246.44;5088362;28;20021;-64
2022/08/20 09:01:22;;;;;;;0.15;0.15;;;;;;;30.59;41.00;100258.16;5088414;28;20407;-64
2022/08/20 09:03:50;;;;;;;0.10;0.10;;;;;;;30.81;38.00;100258.78;5088596;28;20048;-64
2022/08/20 09:06:21;;;;;;;0.15;0.15;;;;;;;30.50;37.92;100257.19;5088467;28;20020;-64
2022/08/20 09:08:49;;;;;;;0.10;0.10;;;;;;;30.35;38.07;100274.75;5088595;28;20084;-64
2022/08/20 09:11:17;;;;;;;0.30;0.30;;;;;;;30.33;36.70;100256.13;5088631;28;20074;-64
2022/08/20 09:13:43;;;;;;;0.10;0.10;;;;;;;30.29;37.00;100276.16;5088783;28;20016;-65
2022/08/20 09:16:10;;;;;;;0.10;0.10;;;;;;;29.96;35.33;100271.13;5087455;28;20047;-64
2022/08/20 09:18:35;;;;;;;0.10;0.10;;;;;;;29.72;35.66;100268.91;5088334;28;20048;-64
2022/08/20 09:21:01;;;;;;;0.10;0.10;;;;;;;29.48;35.89;100281.69;5087953;28;20027;-65
2022/08/20 09:23:26;;;;;;;0.10;0.10;;;;;;;29.31;34.49;100288.59;5087925;28;20104;-63
2022/08/20 09:25:52;;;;;;;0.10;0.10;;;;;;;29.28;36.38;100296.88;5086855;28;20025;-64
2022/08/20 09:28:17;;;;;;;0.22;0.22;;;;;;;29.47;37.30;100288.03;5125633;28;20115;-66
2022/08/20 09:30:43;;;;;;;0.20;0.20;;;;;;;29.87;36.82;100290.72;5110506;28;20062;-64
2022/08/20 09:33:08;;;;;;;0.20;0.20;;;;;;;29.60;34.97;100295.81;5128691;28;20024;-64
2022/08/20 09:35:33;;;;;;;0.10;0.10;;;;;;;28.95;36.11;100289.94;5128681;28;20052;-65
2022/08/20 09:38:00;;;;;;;0.50;0.50;;;;;;;28.73;36.14;100301.63;5111115;28;20024;-65
2022/08/20 09:40:25;;;;;;;0.10;0.10;;;;;;;28.72;36.58;100302.63;5110535;28;20486;-64
2022/08/20 09:42:50;;;;;;;0.10;0.10;;;;;;;28.75;36.38;100296.16;5128359;28;20023;-64
2022/08/20 09:45:17;;;;;;;0.10;0.10;;;;;;;28.95;36.15;100297.94;5110152;28;20079;-65
2022/08/20 09:47:42;;;;;;;0.10;0.10;;;;;;;29.10;36.23;100304.72;5128374;28;20030;-65
2022/08/20 09:50:08;;;;;;;3.47;1.42;;;;;;;28.85;36.39;100297.00;5128240;28;20023;-65
2022/08/20 09:52:36;;;;;;;0.10;0.10;;;;;;;28.75;37.04;100301.50;5127897;28;20034;-64
2022/08/20 09:55:23;;;;;;;0.10;0.10;;;;;;;28.44;36.82;100305.88;5128038;28;20143;-65
2022/08/20 09:57:49;;;;;;;0.10;0.10;;;;;;;28.86;37.68;100297.88;5128059;28;20024;-65
2022/08/20 10:00:15;;;;;;;0.10;0.10;;;;;;;29.36;37.82;100302.41;5128189;28;20030;-65
2022/08/20 10:02:41;;;;;;;0.10;0.10;;;;;;;29.99;36.50;100294.09;5127908;28;20024;-66
2022/08/20 10:05:08;;;;;;;0.10;0.10;;;;;;;30.55;34.71;100297.78;5128072;28;20052;-66
2022/08/20 10:07:34;;;;;;;0.10;0.10;;;;;;;30.70;33.39;100285.72;5128114;28;20019;-65
2022/08/20 10:10:06;;;;;;;0.10;0.10;;;;;;;30.73;31.61;100293.47;5127995;28;20031;-66
2022/08/20 10:12:31;;;;;;;0.22;0.22;;;;;;;30.80;33.43;100299.94;5128325;28;20076;-66
2022/08/20 10:14:57;;;;;;;0.10;0.10;;;;;;;31.33;32.44;100302.88;5127771;28;20054;-66
2022/08/20 10:17:22;;;;;;;0.10;0.10;;;;;;;31.51;30.62;100305.59;5127920;28;20027;-65
2022/08/20 10:19:48;;;;;;;0.10;0.10;;;;;;;31.57;30.28;100309.50;5127800;28;20039;-66
2022/08/20 10:22:13;;;;;;;0.10;0.10;;;;;;;31.27;31.76;100314.19;5127519;28;20023;-65
2022/08/20 10:24:39;;;;;;;0.10;0.10;;;;;;;31.22;32.11;100314.66;5127391;28;20024;-65
2022/08/20 10:27:07;;;;;;;0.10;0.10;;;;;;;31.06;29.92;100320.69;5108454;28;20050;-66
2022/08/20 10:29:33;;;;;;;0.10;0.10;;;;;;;30.65;31.65;100331.72;5127522;28;20590;-64
2022/08/20 10:32:10;;;;;;;0.10;0.10;;;;;;;30.22;31.67;100323.25;5108854;28;20035;-65
2022/08/20 10:34:36;;;;;;;0.10;0.10;;;;;;;30.16;32.68;100303.22;5108931;28;20072;-66
2022/08/20 10:37:04;;;;;;;0.82;0.82;;;;;;;29.87;32.71;100330.88;5127225;28;20027;-65
2022/08/20 10:39:30;;;;;;;0.10;0.10;;;;;;;29.57;32.66;100328.13;5127204;28;20016;-64
2022/08/20 10:41:55;;;;;;;0.10;0.10;;;;;;;29.56;33.41;100330.00;5127161;28;20034;-64
2022/08/20 10:44:20;;;;;;;0.20;0.20;;;;;;;29.55;33.58;100327.44;5127198;28;20080;-65
2022/08/20 10:46:46;;;;;;;0.10;0.10;;;;;;;29.58;33.62;100326.34;5126967;28;20023;-65
2022/08/20 10:49:11;;;;;;;0.10;0.10;;;;;;;29.97;31.84;100328.19;5126560;28;20027;-66
2022/08/20 10:51:37;;;;;;;0.10;0.10;;;;;;;30.35;31.73;100326.47;5126790;28;20034;-67
2022/08/20 10:54:02;;;;;;;0.10;0.10;;;;;;;30.43;31.80;100329.22;5127036;28;20270;-66
2022/08/20 10:56:28;;;;;;;0.10;0.10;;;;;;;30.03;32.19;100322.25;5126734;28;20023;-67
2022/08/20 10:58:53;;;;;;;0.10;0.10;;;;;;;29.97;32.58;100326.34;5126718;28;20055;-68
2022/08/20 11:01:19;;;;;;;0.10;0.10;;;;;;;30.10;31.88;100327.91;5126894;28;20024;-68
2022/08/20 11:03:44;;;;;;;0.10;0.10;;;;;;;29.86;31.07;100323.84;5126861;28;20019;-68
2022/08/20 11:06:10;;;;;;;4.47;1.33;;;;;;;29.60;31.73;100333.25;5126486;28;20030;-68
2022/08/20 11:08:35;;;;;;;0.20;0.20;;;;;;;29.57;32.01;100338.84;5126830;28;20028;-67
2022/08/20 11:11:01;;;;;;;3.13;1.38;;;;;;;29.33;31.76;100334.72;5126507;28;20058;-66
2022/08/20 11:13:26;;;;;;;0.20;0.20;;;;;;;29.04;32.43;100335.53;5126366;28;20023;-67
2022/08/20 11:15:54;;;;;;;0.20;0.20;;;;;;;29.03;33.18;100341.81;5126557;28;20016;-65
2022/08/20 11:18:20;;;;;;;0.10;0.10;;;;;;;29.10;33.14;100331.44;5126551;28;20016;-65
2022/08/20 11:20:48;;;;;;;0.10;0.10;;;;;;;28.92;33.03;100340.94;5126576;28;20024;-65
2022/08/20 11:23:13;;;;;;;0.10;0.10;;;;;;;28.94;33.75;100335.44;5126331;28;20031;-68
2022/08/20 11:25:39;;;;;;;0.10;0.10;;;;;;;29.31;33.49;100337.53;5108136;28;20020;-67
2022/08/20 11:28:05;;;;;;;0.10;0.10;;;;;;;29.61;33.78;100332.28;5108202;28;20055;-65
2022/08/20 11:30:34;;;;;;;0.15;0.15;;;;;;;28.77;34.91;100343.09;5126562;28;20050;-62
2022/08/20 11:33:00;;;;;;;0.10;0.10;;;;;;;27.39;35.39;100348.25;5126160;28;20035;-61